sensor_id;sensor_type;location;lat;lon;timestamp;temperature;humidity
67769;DHT22;54569;52.018;5.584;2023-04-06T00:01:37;5.30;49.90
67769;DHT22;54569;52.018;5.584;2023-04-06T00:04:02;5.20;50.00
67769;DHT22;54569;52.018;5.584;2023-04-06T00:06:28;5.20;50.30
67769;DHT22;54569;52.018;5.584;2023-04-06T00:08:55;5.20;50.30
67769;DHT22;54569;52.018;5.584;2023-04-06T00:11:21;5.20;50.60
67769;DHT22;54569;52.018;5.584;2023-04-06T00:13:47;5.20;50.60
67769;DHT22;54569;52.018;5.584;2023-04-06T00:16:12;5.20;50.60
67769;DHT22;54569;52.018;5.584;2023-04-06T00:18:39;5.20;51.50
67769;DHT22;54569;52.018;5.584;2023-04-06T00:21:04;5.20;50.60
67769;DHT22;54569;52.018;5.584;2023-04-06T00:23:30;5.20;50.60
67769;DHT22;54569;52.018;5.584;2023-04-06T00:25:56;5.10;50.80
67769;DHT22;54569;52.018;5.584;2023-04-06T00:28:22;5.10;51.00
67769;DHT22;54569;52.018;5.584;2023-04-06T00:30:54;5.10;51.10
67769;DHT22;54569;52.018;5.584;2023-04-06T00:33:21;5.00;51.10
67769;DHT22;54569;52.018;5.584;2023-04-06T00:35:48;5.00;51.20
67769;DHT22;54569;52.018;5.584;2023-04-06T00:38:14;5.00;51.30
67769;DHT22;54569;52.018;5.584;2023-04-06T00:40:41;5.00;51.20
67769;DHT22;54569;52.018;5.584;2023-04-06T00:43:07;5.00;51.20
67769;DHT22;54569;52.018;5.584;2023-04-06T00:45:34;4.90;51.30
67769;DHT22;54569;52.018;5.584;2023-04-06T00:48:00;4.90;51.40
67769;DHT22;54569;52.018;5.584;2023-04-06T00:50:27;4.90;51.30
67769;DHT22;54569;52.018;5.584;2023-04-06T00:52:54;4.90;51.30
67769;DHT22;54569;52.018;5.584;2023-04-06T00:55:25;4.90;51.10
67769;DHT22;54569;52.018;5.584;2023-04-06T00:57:51;4.90;51.00
67769;DHT22;54569;52.018;5.584;2023-04-06T01:00:18;4.90;51.10
67769;DHT22;54569;52.018;5.584;2023-04-06T01:02:45;4.90;50.80
67769;DHT22;54569;52.018;5.584;2023-04-06T01:05:14;4.90;50.80
67769;DHT22;54569;52.018;5.584;2023-04-06T01:07:49;4.90;50.40
67769;DHT22;54569;52.018;5.584;2023-04-06T01:10:26;4.90;50.50
67769;DHT22;54569;52.018;5.584;2023-04-06T01:12:57;4.80;51.20
67769;DHT22;54569;52.018;5.584;2023-04-06T01:15:42;4.80;50.60
67769;DHT22;54569;52.018;5.584;2023-04-06T01:18:11;4.80;50.90
67769;DHT22;54569;52.018;5.584;2023-04-06T01:20:44;4.80;50.80
67769;DHT22;54569;52.018;5.584;2023-04-06T01:23:10;4.80;50.50
67769;DHT22;54569;52.018;5.584;2023-04-06T01:25:41;4.70;50.80
67769;DHT22;54569;52.018;5.584;2023-04-06T01:28:08;4.70;50.80
67769;DHT22;54569;52.018;5.584;2023-04-06T01:30:53;4.70;50.80
67769;DHT22;54569;52.018;5.584;2023-04-06T01:33:37;4.70;50.70
67769;DHT22;54569;52.018;5.584;2023-04-06T01:36:06;4.70;50.80
67769;DHT22;54569;52.018;5.584;2023-04-06T01:38:32;4.70;50.90
67769;DHT22;54569;52.018;5.584;2023-04-06T01:40:58;4.60;50.80
67769;DHT22;54569;52.018;5.584;2023-04-06T01:43:27;4.70;50.80
67769;DHT22;54569;52.018;5.584;2023-04-06T01:46:04;4.70;50.80
67769;DHT22;54569;52.018;5.584;2023-04-06T01:48:34;4.70;50.80
67769;DHT22;54569;52.018;5.584;2023-04-06T01:51:07;4.70;51.00
67769;DHT22;54569;52.018;5.584;2023-04-06T01:53:40;4.60;50.90
67769;DHT22;54569;52.018;5.584;2023-04-06T01:56:06;4.60;50.90
67769;DHT22;54569;52.018;5.584;2023-04-06T01:58:37;4.60;50.90
67769;DHT22;54569;52.018;5.584;2023-04-06T02:01:03;4.70;50.70
67769;DHT22;54569;52.018;5.584;2023-04-06T02:03:35;4.70;50.60
67769;DHT22;54569;52.018;5.584;2023-04-06T02:06:06;4.70;50.60
67769;DHT22;54569;52.018;5.584;2023-04-06T02:08:37;4.70;51.10
67769;DHT22;54569;52.018;5.584;2023-04-06T02:11:03;4.60;51.60
67769;DHT22;54569;52.018;5.584;2023-04-06T02:13:33;4.70;51.70
67769;DHT22;54569;52.018;5.584;2023-04-06T02:15:59;4.70;51.30
67769;DHT22;54569;52.018;5.584;2023-04-06T02:18:30;4.70;51.30
67769;DHT22;54569;52.018;5.584;2023-04-06T02:20:55;4.70;51.30
67769;DHT22;54569;52.018;5.584;2023-04-06T02:23:21;4.70;51.00
67769;DHT22;54569;52.018;5.584;2023-04-06T02:25:47;4.70;51.00
67769;DHT22;54569;52.018;5.584;2023-04-06T02:28:13;4.70;51.00
67769;DHT22;54569;52.018;5.584;2023-04-06T02:30:39;4.70;51.30
67769;DHT22;54569;52.018;5.584;2023-04-06T02:33:05;4.70;51.30
67769;DHT22;54569;52.018;5.584;2023-04-06T02:35:39;4.70;51.70
67769;DHT22;54569;52.018;5.584;2023-04-06T02:38:04;4.70;51.00
67769;DHT22;54569;52.018;5.584;2023-04-06T02:40:30;4.80;51.20
67769;DHT22;54569;52.018;5.584;2023-04-06T02:43:00;4.80;51.20
67769;DHT22;54569;52.018;5.584;2023-04-06T02:45:30;4.80;51.10
67769;DHT22;54569;52.018;5.584;2023-04-06T02:47:56;4.90;51.10
67769;DHT22;54569;52.018;5.584;2023-04-06T02:50:23;4.90;51.10
67769;DHT22;54569;52.018;5.584;2023-04-06T02:52:56;4.90;51.10
67769;DHT22;54569;52.018;5.584;2023-04-06T02:55:22;4.90;51.10
67769;DHT22;54569;52.018;5.584;2023-04-06T02:57:49;4.90;51.20
67769;DHT22;54569;52.018;5.584;2023-04-06T03:00:16;4.90;50.90
67769;DHT22;54569;52.018;5.584;2023-04-06T03:02:41;5.00;50.80
67769;DHT22;54569;52.018;5.584;2023-04-06T03:05:11;5.00;50.80
67769;DHT22;54569;52.018;5.584;2023-04-06T03:07:41;5.00;51.20
67769;DHT22;54569;52.018;5.584;2023-04-06T03:10:12;5.00;50.70
67769;DHT22;54569;52.018;5.584;2023-04-06T03:12:37;5.00;51.10
67769;DHT22;54569;52.018;5.584;2023-04-06T03:15:15;5.00;51.50
67769;DHT22;54569;52.018;5.584;2023-04-06T03:17:46;5.00;51.20
67769;DHT22;54569;52.018;5.584;2023-04-06T03:20:26;5.00;51.70
67769;DHT22;54569;52.018;5.584;2023-04-06T03:22:52;5.00;51.20
67769;DHT22;54569;52.018;5.584;2023-04-06T03:25:22;4.90;51.50
67769;DHT22;54569;52.018;5.584;2023-04-06T03:27:48;4.90;51.20
67769;DHT22;54569;52.018;5.584;2023-04-06T03:30:17;4.90;51.50
67769;DHT22;54569;52.018;5.584;2023-04-06T03:32:44;4.90;51.30
67769;DHT22;54569;52.018;5.584;2023-04-06T03:35:10;4.90;51.00
67769;DHT22;54569;52.018;5.584;2023-04-06T03:37:36;4.90;51.50
67769;DHT22;54569;52.018;5.584;2023-04-06T03:40:03;4.90;51.30
67769;DHT22;54569;52.018;5.584;2023-04-06T03:42:29;4.90;51.00
67769;DHT22;54569;52.018;5.584;2023-04-06T03:45:01;4.90;51.10
67769;DHT22;54569;52.018;5.584;2023-04-06T03:47:27;5.00;51.20
67769;DHT22;54569;52.018;5.584;2023-04-06T03:49:56;5.00;51.40
67769;DHT22;54569;52.018;5.584;2023-04-06T03:52:22;5.00;51.50
67769;DHT22;54569;52.018;5.584;2023-04-06T03:54:50;5.00;51.50
67769;DHT22;54569;52.018;5.584;2023-04-06T03:57:16;4.90;52.00
67769;DHT22;54569;52.018;5.584;2023-04-06T03:59:42;4.90;51.20
67769;DHT22;54569;52.018;5.584;2023-04-06T04:02:07;4.90;51.50
67769;DHT22;54569;52.018;5.584;2023-04-06T04:04:33;4.90;51.30
67769;DHT22;54569;52.018;5.584;2023-04-06T04:06:59;4.90;51.10
67769;DHT22;54569;52.018;5.584;2023-04-06T04:09:25;5.00;51.50
67769;DHT22;54569;52.018;5.584;2023-04-06T04:11:51;5.00;50.70
67769;DHT22;54569;52.018;5.584;2023-04-06T04:14:17;5.00;50.80
67769;DHT22;54569;52.018;5.584;2023-04-06T04:16:44;5.00;50.60
67769;DHT22;54569;52.018;5.584;2023-04-06T04:19:10;5.00;50.30
67769;DHT22;54569;52.018;5.584;2023-04-06T04:21:45;5.00;50.50
67769;DHT22;54569;52.018;5.584;2023-04-06T04:24:13;5.00;51.00
67769;DHT22;54569;52.018;5.584;2023-04-06T04:26:40;5.00;51.50
67769;DHT22;54569;52.018;5.584;2023-04-06T04:29:06;5.00;51.50
67769;DHT22;54569;52.018;5.584;2023-04-06T04:31:35;4.90;52.20
67769;DHT22;54569;52.018;5.584;2023-04-06T04:34:03;4.90;51.90
67769;DHT22;54569;52.018;5.584;2023-04-06T04:36:32;4.90;52.10
67769;DHT22;54569;52.018;5.584;2023-04-06T04:39:01;4.80;51.70
67769;DHT22;54569;52.018;5.584;2023-04-06T04:41:30;4.80;51.60
67769;DHT22;54569;52.018;5.584;2023-04-06T04:43:57;4.80;51.80
67769;DHT22;54569;52.018;5.584;2023-04-06T04:46:25;4.80;52.50
67769;DHT22;54569;52.018;5.584;2023-04-06T04:48:51;4.80;51.10
67769;DHT22;54569;52.018;5.584;2023-04-06T04:51:18;4.80;51.40
67769;DHT22;54569;52.018;5.584;2023-04-06T04:54:05;4.70;51.40
67769;DHT22;54569;52.018;5.584;2023-04-06T04:56:34;4.70;52.00
67769;DHT22;54569;52.018;5.584;2023-04-06T04:59:20;4.70;52.20
67769;DHT22;54569;52.018;5.584;2023-04-06T05:01:53;4.70;53.20
67769;DHT22;54569;52.018;5.584;2023-04-06T05:04:20;4.70;52.30
67769;DHT22;54569;52.018;5.584;2023-04-06T05:06:46;4.70;52.70
67769;DHT22;54569;52.018;5.584;2023-04-06T05:09:13;4.70;52.90
67769;DHT22;54569;52.018;5.584;2023-04-06T05:11:41;4.70;52.50
67769;DHT22;54569;52.018;5.584;2023-04-06T05:14:07;4.70;52.50
67769;DHT22;54569;52.018;5.584;2023-04-06T05:16:34;4.70;52.10
67769;DHT22;54569;52.018;5.584;2023-04-06T05:19:00;4.70;51.50
67769;DHT22;54569;52.018;5.584;2023-04-06T05:21:33;4.70;51.80
67769;DHT22;54569;52.018;5.584;2023-04-06T05:24:04;4.80;51.70
67769;DHT22;54569;52.018;5.584;2023-04-06T05:26:32;4.80;51.80
67769;DHT22;54569;52.018;5.584;2023-04-06T05:29:04;4.80;52.00
67769;DHT22;54569;52.018;5.584;2023-04-06T05:31:33;4.90;51.50
67769;DHT22;54569;52.018;5.584;2023-04-06T05:33:59;5.00;51.60
67769;DHT22;54569;52.018;5.584;2023-04-06T05:36:43;5.00;51.40
67769;DHT22;54569;52.018;5.584;2023-04-06T05:39:19;5.10;51.30
67769;DHT22;54569;52.018;5.584;2023-04-06T05:41:49;5.20;51.50
67769;DHT22;54569;52.018;5.584;2023-04-06T05:44:20;5.30;51.40
67769;DHT22;54569;52.018;5.584;2023-04-06T05:46:50;5.30;51.60
67769;DHT22;54569;52.018;5.584;2023-04-06T05:49:16;5.40;51.80
67769;DHT22;54569;52.018;5.584;2023-04-06T05:51:42;5.50;51.80
67769;DHT22;54569;52.018;5.584;2023-04-06T05:54:08;5.60;50.90
67769;DHT22;54569;52.018;5.584;2023-04-06T05:56:34;5.60;50.50
67769;DHT22;54569;52.018;5.584;2023-04-06T05:59:01;5.70;50.60
67769;DHT22;54569;52.018;5.584;2023-04-06T06:01:28;5.80;50.80
67769;DHT22;54569;52.018;5.584;2023-04-06T06:03:54;5.90;50.60
67769;DHT22;54569;52.018;5.584;2023-04-06T06:06:23;6.00;50.60
67769;DHT22;54569;52.018;5.584;2023-04-06T06:09:04;6.10;50.40
67769;DHT22;54569;52.018;5.584;2023-04-06T06:11:32;6.10;50.90
67769;DHT22;54569;52.018;5.584;2023-04-06T06:13:59;6.20;51.40
67769;DHT22;54569;52.018;5.584;2023-04-06T06:16:25;6.20;51.60
67769;DHT22;54569;52.018;5.584;2023-04-06T06:18:51;6.30;51.60
67769;DHT22;54569;52.018;5.584;2023-04-06T06:21:18;6.30;51.40
67769;DHT22;54569;52.018;5.584;2023-04-06T06:23:44;6.40;51.30
67769;DHT22;54569;52.018;5.584;2023-04-06T06:26:14;6.40;51.30
67769;DHT22;54569;52.018;5.584;2023-04-06T06:28:40;6.50;50.90
67769;DHT22;54569;52.018;5.584;2023-04-06T06:31:06;6.50;50.90
67769;DHT22;54569;52.018;5.584;2023-04-06T06:33:32;6.60;50.20
67769;DHT22;54569;52.018;5.584;2023-04-06T06:35:58;6.60;50.40
67769;DHT22;54569;52.018;5.584;2023-04-06T06:38:24;6.60;49.70
67769;DHT22;54569;52.018;5.584;2023-04-06T06:40:50;6.50;51.50
67769;DHT22;54569;52.018;5.584;2023-04-06T06:43:16;6.50;51.20
67769;DHT22;54569;52.018;5.584;2023-04-06T06:45:49;6.50;51.00
67769;DHT22;54569;52.018;5.584;2023-04-06T06:48:15;6.50;50.70
67769;DHT22;54569;52.018;5.584;2023-04-06T06:50:41;6.50;51.00
67769;DHT22;54569;52.018;5.584;2023-04-06T06:53:07;6.50;50.60
67769;DHT22;54569;52.018;5.584;2023-04-06T06:55:33;6.60;51.30
67769;DHT22;54569;52.018;5.584;2023-04-06T06:57:59;6.60;51.10
67769;DHT22;54569;52.018;5.584;2023-04-06T07:00:24;6.70;51.20
67769;DHT22;54569;52.018;5.584;2023-04-06T07:02:51;6.80;51.50
67769;DHT22;54569;52.018;5.584;2023-04-06T07:05:17;6.80;51.60
67769;DHT22;54569;52.018;5.584;2023-04-06T07:07:42;6.90;52.10
67769;DHT22;54569;52.018;5.584;2023-04-06T07:10:10;7.00;51.60
67769;DHT22;54569;52.018;5.584;2023-04-06T07:12:37;7.10;51.00
67769;DHT22;54569;52.018;5.584;2023-04-06T07:15:03;7.20;51.30
67769;DHT22;54569;52.018;5.584;2023-04-06T07:17:30;7.30;50.50
67769;DHT22;54569;52.018;5.584;2023-04-06T07:19:56;7.40;50.70
67769;DHT22;54569;52.018;5.584;2023-04-06T07:22:22;7.50;50.70
67769;DHT22;54569;52.018;5.584;2023-04-06T07:24:47;7.60;50.10
67769;DHT22;54569;52.018;5.584;2023-04-06T07:27:13;7.60;50.30
67769;DHT22;54569;52.018;5.584;2023-04-06T07:29:39;7.60;50.40
67769;DHT22;54569;52.018;5.584;2023-04-06T07:32:05;7.60;50.30
67769;DHT22;54569;52.018;5.584;2023-04-06T07:34:32;7.60;51.10
67769;DHT22;54569;52.018;5.584;2023-04-06T07:36:57;7.60;51.20
67769;DHT22;54569;52.018;5.584;2023-04-06T07:39:25;7.50;51.20
67769;DHT22;54569;52.018;5.584;2023-04-06T07:41:53;7.50;51.60
67769;DHT22;54569;52.018;5.584;2023-04-06T07:44:19;7.40;51.60
67769;DHT22;54569;52.018;5.584;2023-04-06T07:46:45;7.40;51.80
67769;DHT22;54569;52.018;5.584;2023-04-06T07:49:17;7.40;51.10
67769;DHT22;54569;52.018;5.584;2023-04-06T07:51:43;7.40;51.40
67769;DHT22;54569;52.018;5.584;2023-04-06T07:54:09;7.50;50.60
67769;DHT22;54569;52.018;5.584;2023-04-06T07:56:35;7.50;50.80
67769;DHT22;54569;52.018;5.584;2023-04-06T07:59:00;7.50;51.20
67769;DHT22;54569;52.018;5.584;2023-04-06T08:01:28;7.50;50.40
67769;DHT22;54569;52.018;5.584;2023-04-06T08:03:54;7.60;50.20
67769;DHT22;54569;52.018;5.584;2023-04-06T08:06:21;7.60;50.90
67769;DHT22;54569;52.018;5.584;2023-04-06T08:08:46;7.60;51.00
67769;DHT22;54569;52.018;5.584;2023-04-06T08:11:12;7.60;50.70
67769;DHT22;54569;52.018;5.584;2023-04-06T08:13:38;7.70;50.30
67769;DHT22;54569;52.018;5.584;2023-04-06T08:16:04;7.70;50.10
67769;DHT22;54569;52.018;5.584;2023-04-06T08:18:30;7.80;50.20
67769;DHT22;54569;52.018;5.584;2023-04-06T08:20:55;7.90;49.90
67769;DHT22;54569;52.018;5.584;2023-04-06T08:23:22;8.00;50.00
67769;DHT22;54569;52.018;5.584;2023-04-06T08:25:48;8.10;50.40
67769;DHT22;54569;52.018;5.584;2023-04-06T08:28:13;8.30;50.50
67769;DHT22;54569;52.018;5.584;2023-04-06T08:30:42;8.50;50.30
67769;DHT22;54569;52.018;5.584;2023-04-06T08:33:08;8.70;48.90
67769;DHT22;54569;52.018;5.584;2023-04-06T08:35:34;8.80;49.20
67769;DHT22;54569;52.018;5.584;2023-04-06T08:37:59;8.90;48.00
67769;DHT22;54569;52.018;5.584;2023-04-06T08:40:25;9.10;48.90
67769;DHT22;54569;52.018;5.584;2023-04-06T08:42:54;9.20;48.90
67769;DHT22;54569;52.018;5.584;2023-04-06T08:45:20;9.20;48.90
67769;DHT22;54569;52.018;5.584;2023-04-06T08:47:54;9.10;48.40
67769;DHT22;54569;52.018;5.584;2023-04-06T08:50:24;9.10;48.90
67769;DHT22;54569;52.018;5.584;2023-04-06T08:52:50;9.20;48.70
67769;DHT22;54569;52.018;5.584;2023-04-06T08:55:16;9.20;49.00
67769;DHT22;54569;52.018;5.584;2023-04-06T08:57:42;9.30;49.10
67769;DHT22;54569;52.018;5.584;2023-04-06T09:00:10;9.30;48.90
67769;DHT22;54569;52.018;5.584;2023-04-06T09:02:39;9.40;48.40
67769;DHT22;54569;52.018;5.584;2023-04-06T09:05:07;9.60;48.60
67769;DHT22;54569;52.018;5.584;2023-04-06T09:07:33;9.60;48.10
67769;DHT22;54569;52.018;5.584;2023-04-06T09:09:59;9.60;47.80
67769;DHT22;54569;52.018;5.584;2023-04-06T09:12:29;9.70;48.40
67769;DHT22;54569;52.018;5.584;2023-04-06T09:14:57;9.80;48.60
67769;DHT22;54569;52.018;5.584;2023-04-06T09:17:28;9.90;48.10
67769;DHT22;54569;52.018;5.584;2023-04-06T09:19:54;10.00;47.60
67769;DHT22;54569;52.018;5.584;2023-04-06T09:22:21;10.10;47.90
67769;DHT22;54569;52.018;5.584;2023-04-06T09:24:52;10.10;47.90
67769;DHT22;54569;52.018;5.584;2023-04-06T09:27:19;10.10;48.20
67769;DHT22;54569;52.018;5.584;2023-04-06T09:30:06;10.20;47.80
67769;DHT22;54569;52.018;5.584;2023-04-06T09:32:32;10.30;48.20
67769;DHT22;54569;52.018;5.584;2023-04-06T09:35:09;10.30;48.30
67769;DHT22;54569;52.018;5.584;2023-04-06T09:37:35;10.30;49.30
67769;DHT22;54569;52.018;5.584;2023-04-06T09:40:08;10.40;48.10
67769;DHT22;54569;52.018;5.584;2023-04-06T09:42:34;10.50;48.10
67769;DHT22;54569;52.018;5.584;2023-04-06T09:45:03;10.50;47.60
67769;DHT22;54569;52.018;5.584;2023-04-06T09:47:30;10.50;47.70
67769;DHT22;54569;52.018;5.584;2023-04-06T09:49:59;10.60;47.70
67769;DHT22;54569;52.018;5.584;2023-04-06T09:52:50;10.60;47.90
67769;DHT22;54569;52.018;5.584;2023-04-06T09:55:26;10.50;49.70
67769;DHT22;54569;52.018;5.584;2023-04-06T10:00:29;10.40;48.20
67769;DHT22;54569;52.018;5.584;2023-04-06T10:05:54;10.30;47.80
67769;DHT22;54569;52.018;5.584;2023-04-06T10:08:22;10.40;48.80
67769;DHT22;54569;52.018;5.584;2023-04-06T10:10:50;10.50;47.90
67769;DHT22;54569;52.018;5.584;2023-04-06T10:13:17;10.60;47.90
67769;DHT22;54569;52.018;5.584;2023-04-06T10:15:44;10.70;47.80
67769;DHT22;54569;52.018;5.584;2023-04-06T10:18:10;10.90;47.50
67769;DHT22;54569;52.018;5.584;2023-04-06T10:20:43;11.00;47.40
67769;DHT22;54569;52.018;5.584;2023-04-06T10:23:19;11.20;47.50
67769;DHT22;54569;52.018;5.584;2023-04-06T10:25:55;11.40;47.30
67769;DHT22;54569;52.018;5.584;2023-04-06T10:28:22;11.60;47.70
67769;DHT22;54569;52.018;5.584;2023-04-06T10:30:48;11.60;47.40
67769;DHT22;54569;52.018;5.584;2023-04-06T10:33:15;11.70;47.60
67769;DHT22;54569;52.018;5.584;2023-04-06T10:35:41;11.80;47.70
67769;DHT22;54569;52.018;5.584;2023-04-06T10:38:07;11.70;47.80
67769;DHT22;54569;52.018;5.584;2023-04-06T10:40:36;11.70;48.30
67769;DHT22;54569;52.018;5.584;2023-04-06T10:43:20;11.60;48.90
67769;DHT22;54569;52.018;5.584;2023-04-06T10:45:59;11.60;50.00
67769;DHT22;54569;52.018;5.584;2023-04-06T10:48:25;11.60;49.30
67769;DHT22;54569;52.018;5.584;2023-04-06T10:51:01;11.60;48.80
67769;DHT22;54569;52.018;5.584;2023-04-06T10:53:27;11.60;49.80
67769;DHT22;54569;52.018;5.584;2023-04-06T10:55:55;11.40;50.00
67769;DHT22;54569;52.018;5.584;2023-04-06T10:58:25;11.30;51.30
67769;DHT22;54569;52.018;5.584;2023-04-06T11:00:51;11.20;51.60
67769;DHT22;54569;52.018;5.584;2023-04-06T11:03:18;11.20;51.90
67769;DHT22;54569;52.018;5.584;2023-04-06T11:05:49;11.10;51.70
67769;DHT22;54569;52.018;5.584;2023-04-06T11:08:31;11.10;52.60
67769;DHT22;54569;52.018;5.584;2023-04-06T11:11:06;10.90;55.00
67769;DHT22;54569;52.018;5.584;2023-04-06T11:13:58;10.90;53.70
67769;DHT22;54569;52.018;5.584;2023-04-06T11:16:29;10.80;56.70
67769;DHT22;54569;52.018;5.584;2023-04-06T11:18:56;10.70;53.50
67769;DHT22;54569;52.018;5.584;2023-04-06T11:26:29;10.60;56.20
67769;DHT22;54569;52.018;5.584;2023-04-06T11:28:55;10.60;55.00
67769;DHT22;54569;52.018;5.584;2023-04-06T11:31:25;10.50;56.30
67769;DHT22;54569;52.018;5.584;2023-04-06T11:33:56;10.50;55.50
67769;DHT22;54569;52.018;5.584;2023-04-06T11:36:22;10.50;56.40
67769;DHT22;54569;52.018;5.584;2023-04-06T11:38:48;10.40;55.50
67769;DHT22;54569;52.018;5.584;2023-04-06T11:41:13;10.40;55.80
67769;DHT22;54569;52.018;5.584;2023-04-06T11:43:46;10.40;56.80
67769;DHT22;54569;52.018;5.584;2023-04-06T11:46:17;10.30;56.50
67769;DHT22;54569;52.018;5.584;2023-04-06T11:48:45;10.20;56.90
67769;DHT22;54569;52.018;5.584;2023-04-06T11:51:11;10.10;57.10
67769;DHT22;54569;52.018;5.584;2023-04-06T11:53:44;10.10;57.20
67769;DHT22;54569;52.018;5.584;2023-04-06T11:56:11;10.00;57.40
67769;DHT22;54569;52.018;5.584;2023-04-06T11:58:37;9.90;57.40
67769;DHT22;54569;52.018;5.584;2023-04-06T12:01:05;9.90;57.50
67769;DHT22;54569;52.018;5.584;2023-04-06T12:03:31;9.80;57.40
67769;DHT22;54569;52.018;5.584;2023-04-06T12:05:57;9.70;56.60
67769;DHT22;54569;52.018;5.584;2023-04-06T12:08:23;9.70;57.20
67769;DHT22;54569;52.018;5.584;2023-04-06T12:10:50;9.70;58.40
67769;DHT22;54569;52.018;5.584;2023-04-06T12:13:16;9.60;57.50
67769;DHT22;54569;52.018;5.584;2023-04-06T12:15:42;9.60;58.40
67769;DHT22;54569;52.018;5.584;2023-04-06T12:18:07;9.60;57.70
67769;DHT22;54569;52.018;5.584;2023-04-06T12:20:33;9.60;59.10
67769;DHT22;54569;52.018;5.584;2023-04-06T12:22:59;9.50;58.70
67769;DHT22;54569;52.018;5.584;2023-04-06T12:25:27;9.50;58.50
67769;DHT22;54569;52.018;5.584;2023-04-06T12:27:53;9.40;60.30
67769;DHT22;54569;52.018;5.584;2023-04-06T12:30:20;9.30;60.10
67769;DHT22;54569;52.018;5.584;2023-04-06T12:32:46;9.30;60.00
67769;DHT22;54569;52.018;5.584;2023-04-06T12:35:11;9.30;58.60
67769;DHT22;54569;52.018;5.584;2023-04-06T12:37:40;9.30;61.10
67769;DHT22;54569;52.018;5.584;2023-04-06T12:40:07;9.30;60.40
67769;DHT22;54569;52.018;5.584;2023-04-06T12:42:36;9.30;58.90
67769;DHT22;54569;52.018;5.584;2023-04-06T12:45:02;9.40;58.80
67769;DHT22;54569;52.018;5.584;2023-04-06T12:47:27;9.40;59.60
67769;DHT22;54569;52.018;5.584;2023-04-06T12:49:54;9.40;59.50
67769;DHT22;54569;52.018;5.584;2023-04-06T12:52:20;9.30;59.60
67769;DHT22;54569;52.018;5.584;2023-04-06T12:54:47;9.30;60.00
67769;DHT22;54569;52.018;5.584;2023-04-06T12:57:13;9.40;59.90
67769;DHT22;54569;52.018;5.584;2023-04-06T12:59:38;9.30;59.40
67769;DHT22;54569;52.018;5.584;2023-04-06T13:02:04;9.30;59.80
67769;DHT22;54569;52.018;5.584;2023-04-06T13:04:30;9.30;61.30
67769;DHT22;54569;52.018;5.584;2023-04-06T13:06:56;9.30;60.30
67769;DHT22;54569;52.018;5.584;2023-04-06T13:09:22;9.30;61.40
67769;DHT22;54569;52.018;5.584;2023-04-06T13:11:47;9.30;61.30
67769;DHT22;54569;52.018;5.584;2023-04-06T13:14:13;9.30;60.10
67769;DHT22;54569;52.018;5.584;2023-04-06T13:16:38;9.30;60.40
67769;DHT22;54569;52.018;5.584;2023-04-06T13:19:04;9.30;61.30
67769;DHT22;54569;52.018;5.584;2023-04-06T13:21:30;9.20;60.80
67769;DHT22;54569;52.018;5.584;2023-04-06T13:23:56;9.20;61.10
67769;DHT22;54569;52.018;5.584;2023-04-06T13:26:22;9.10;61.60
67769;DHT22;54569;52.018;5.584;2023-04-06T13:28:47;9.10;62.40
67769;DHT22;54569;52.018;5.584;2023-04-06T13:31:13;9.10;61.70
67769;DHT22;54569;52.018;5.584;2023-04-06T13:33:39;9.10;63.80
67769;DHT22;54569;52.018;5.584;2023-04-06T13:36:06;9.00;62.60
67769;DHT22;54569;52.018;5.584;2023-04-06T13:38:33;9.00;62.70
67769;DHT22;54569;52.018;5.584;2023-04-06T13:40:59;9.00;62.60
67769;DHT22;54569;52.018;5.584;2023-04-06T13:43:25;9.00;61.60
67769;DHT22;54569;52.018;5.584;2023-04-06T13:45:56;9.00;61.50
67769;DHT22;54569;52.018;5.584;2023-04-06T13:48:23;9.00;63.60
67769;DHT22;54569;52.018;5.584;2023-04-06T13:50:49;9.00;63.40
67769;DHT22;54569;52.018;5.584;2023-04-06T13:53:15;9.00;63.60
67769;DHT22;54569;52.018;5.584;2023-04-06T13:55:41;9.00;63.70
67769;DHT22;54569;52.018;5.584;2023-04-06T13:58:07;8.90;63.50
67769;DHT22;54569;52.018;5.584;2023-04-06T14:00:32;8.90;63.60
67769;DHT22;54569;52.018;5.584;2023-04-06T14:02:58;8.80;64.30
67769;DHT22;54569;52.018;5.584;2023-04-06T14:05:24;8.80;63.40
67769;DHT22;54569;52.018;5.584;2023-04-06T14:07:50;8.80;64.40
67769;DHT22;54569;52.018;5.584;2023-04-06T14:10:16;8.80;63.50
67769;DHT22;54569;52.018;5.584;2023-04-06T14:12:42;8.80;63.70
67769;DHT22;54569;52.018;5.584;2023-04-06T14:15:10;8.90;64.30
67769;DHT22;54569;52.018;5.584;2023-04-06T14:17:37;8.80;64.00
67769;DHT22;54569;52.018;5.584;2023-04-06T14:20:03;8.90;65.10
67769;DHT22;54569;52.018;5.584;2023-04-06T14:22:29;8.80;64.70
67769;DHT22;54569;52.018;5.584;2023-04-06T14:24:55;8.80;64.40
67769;DHT22;54569;52.018;5.584;2023-04-06T14:27:21;8.80;65.60
67769;DHT22;54569;52.018;5.584;2023-04-06T14:29:47;8.80;64.50
67769;DHT22;54569;52.018;5.584;2023-04-06T14:32:13;8.80;63.90
67769;DHT22;54569;52.018;5.584;2023-04-06T14:34:38;8.70;64.10
67769;DHT22;54569;52.018;5.584;2023-04-06T14:37:04;8.80;64.60
67769;DHT22;54569;52.018;5.584;2023-04-06T14:39:29;8.80;64.90
67769;DHT22;54569;52.018;5.584;2023-04-06T14:41:55;8.70;66.10
67769;DHT22;54569;52.018;5.584;2023-04-06T14:44:21;8.70;66.60
67769;DHT22;54569;52.018;5.584;2023-04-06T14:46:47;8.70;66.30
67769;DHT22;54569;52.018;5.584;2023-04-06T14:49:12;8.70;64.80
67769;DHT22;54569;52.018;5.584;2023-04-06T14:51:38;8.80;66.10
67769;DHT22;54569;52.018;5.584;2023-04-06T14:54:04;8.80;66.60
67769;DHT22;54569;52.018;5.584;2023-04-06T14:56:30;8.80;67.00
67769;DHT22;54569;52.018;5.584;2023-04-06T14:59:00;8.80;66.70
67769;DHT22;54569;52.018;5.584;2023-04-06T15:01:29;8.80;66.90
67769;DHT22;54569;52.018;5.584;2023-04-06T15:03:55;8.70;68.50
67769;DHT22;54569;52.018;5.584;2023-04-06T15:06:20;8.70;66.30
67769;DHT22;54569;52.018;5.584;2023-04-06T15:08:48;8.70;67.80
67769;DHT22;54569;52.018;5.584;2023-04-06T15:11:13;8.70;69.30
67769;DHT22;54569;52.018;5.584;2023-04-06T15:13:40;8.60;67.30
67769;DHT22;54569;52.018;5.584;2023-04-06T15:16:07;8.60;68.40
67769;DHT22;54569;52.018;5.584;2023-04-06T15:18:36;8.60;67.40
67769;DHT22;54569;52.018;5.584;2023-04-06T15:21:02;8.60;68.40
67769;DHT22;54569;52.018;5.584;2023-04-06T15:23:27;8.60;67.70
67769;DHT22;54569;52.018;5.584;2023-04-06T15:25:55;8.60;67.90
67769;DHT22;54569;52.018;5.584;2023-04-06T15:28:21;8.60;68.50
67769;DHT22;54569;52.018;5.584;2023-04-06T15:30:47;8.60;67.40
67769;DHT22;54569;52.018;5.584;2023-04-06T15:33:13;8.60;68.90
67769;DHT22;54569;52.018;5.584;2023-04-06T15:35:38;8.60;69.60
67769;DHT22;54569;52.018;5.584;2023-04-06T15:38:09;8.60;68.40
67769;DHT22;54569;52.018;5.584;2023-04-06T15:40:47;8.60;68.90
67769;DHT22;54569;52.018;5.584;2023-04-06T15:43:13;8.60;71.20
67769;DHT22;54569;52.018;5.584;2023-04-06T15:45:39;8.60;71.30
67769;DHT22;54569;52.018;5.584;2023-04-06T15:48:06;8.60;67.30
67769;DHT22;54569;52.018;5.584;2023-04-06T15:50:32;8.50;71.70
67769;DHT22;54569;52.018;5.584;2023-04-06T15:52:58;8.50;69.80
67769;DHT22;54569;52.018;5.584;2023-04-06T15:55:24;8.40;69.10
67769;DHT22;54569;52.018;5.584;2023-04-06T15:57:50;8.40;69.50
67769;DHT22;54569;52.018;5.584;2023-04-06T16:00:16;8.30;71.20